createdAt,value
2023-11-25T00:00:56.150Z,93490.29
2023-11-25T00:03:39.002Z,93492.91
2023-11-25T00:06:06.380Z,93484.56
2023-11-25T00:08:32.914Z,93485.81
2023-11-25T00:11:00.143Z,93483.23
2023-11-25T00:13:26.602Z,93479.96
2023-11-25T00:15:55.160Z,93477.70
2023-11-25T00:18:21.772Z,93469.46
2023-11-25T00:20:48.733Z,93464.74
2023-11-25T00:23:15.151Z,93459.36
2023-11-25T00:25:41.549Z,93458.69
2023-11-25T00:28:10.551Z,93453.94
2023-11-25T00:30:37.670Z,93454.34
2023-11-25T00:33:04.674Z,93459.36
2023-11-25T00:35:31.593Z,93462.39
2023-11-25T00:37:58.135Z,93467.95
2023-11-25T00:40:26.256Z,93469.81
2023-11-25T00:42:52.850Z,93473.45
2023-11-25T00:45:19.572Z,93478.55
2023-11-25T00:47:46.141Z,93476.63
2023-11-25T00:50:16.513Z,93479.60
2023-11-25T00:52:43.576Z,93476.17
2023-11-25T00:55:11.039Z,93467.58
2023-11-25T00:57:38.151Z,93466.33
2023-11-25T01:00:06.449Z,93457.48
2023-11-25T01:02:34.013Z,93445.23
2023-11-25T01:05:00.507Z,93436.95
2023-11-25T01:07:28.798Z,93426.18
2023-11-25T01:09:55.782Z,93430.11
2023-11-25T01:12:22.479Z,93430.27
2023-11-25T01:14:49.057Z,93431.98
2023-11-25T01:17:15.641Z,93434.71
2023-11-25T01:19:42.965Z,93441.92
2023-11-25T01:22:09.904Z,93436.99
2023-11-25T01:24:36.431Z,93442.48
2023-11-25T01:27:03.415Z,93443.19
2023-11-25T01:29:29.991Z,93439.06
2023-11-25T01:31:56.280Z,93436.86
2023-11-25T01:34:22.922Z,93435.56
2023-11-25T01:36:49.427Z,93432.05
2023-11-25T01:39:15.890Z,93430.02
2023-11-25T01:41:44.020Z,93431.57
2023-11-25T01:44:12.861Z,93429.19
2023-11-25T01:46:43.383Z,93424.73
2023-11-25T01:49:14.125Z,93426.95
2023-11-25T01:51:44.623Z,93428.88
2023-11-25T01:54:15.662Z,93433.58
2023-11-25T01:56:45.035Z,93435.32
2023-11-25T01:59:15.887Z,93433.47
2023-11-25T02:01:44.500Z,93428.63
2023-11-25T02:04:10.965Z,93426.95
2023-11-25T02:06:37.412Z,93426.38
2023-11-25T02:09:04.267Z,93424.74
2023-11-25T02:11:30.715Z,93426.23
2023-11-25T02:13:57.336Z,93426.76
2023-11-25T02:16:24.098Z,93428.38
2023-11-25T02:18:52.056Z,93424.86
2023-11-25T02:21:20.318Z,93422.42
2023-11-25T02:23:47.712Z,93426.80
2023-11-25T02:26:14.500Z,93426.62
2023-11-25T02:28:40.804Z,93432.15
2023-11-25T02:31:08.251Z,93430.06
2023-11-25T02:33:35.068Z,93429.52
2023-11-25T02:36:01.708Z,93428.76
2023-11-25T02:38:28.759Z,93427.85
2023-11-25T02:40:55.665Z,93428.20
2023-11-25T02:43:25.024Z,93432.36
2023-11-25T02:45:52.949Z,93433.99
2023-11-25T02:48:20.160Z,93435.09
2023-11-25T02:50:48.479Z,93446.39
2023-11-25T02:53:15.161Z,93447.05
2023-11-25T02:55:41.675Z,93440.23
2023-11-25T02:58:08.210Z,93437.34
2023-11-25T03:00:40.149Z,93446.09
2023-11-25T03:03:13.227Z,93458.54
2023-11-25T03:05:46.485Z,93465.55
2023-11-25T03:08:17.787Z,93478.60
2023-11-25T03:10:46.883Z,93486.74
2023-11-25T03:13:19.217Z,93490.66
2023-11-25T03:15:45.983Z,93494.87
2023-11-25T03:18:13.002Z,93498.96
2023-11-25T03:20:40.892Z,93517.05
2023-11-25T03:23:07.808Z,93521.05
2023-11-25T03:25:35.558Z,93517.55
2023-11-25T03:28:08.326Z,93521.78
2023-11-25T03:30:35.925Z,93519.95
2023-11-25T03:33:02.622Z,93520.67
2023-11-25T03:35:29.416Z,93530.48
2023-11-25T03:37:55.921Z,93525.23
2023-11-25T03:40:22.755Z,93524.23
2023-11-25T03:42:49.560Z,93522.36
2023-11-25T03:45:16.287Z,93524.89
2023-11-25T03:47:46.767Z,93525.83
2023-11-25T03:50:13.694Z,93532.05
2023-11-25T03:52:41.460Z,93532.35
2023-11-25T03:55:11.432Z,93544.08
2023-11-25T03:57:44.103Z,93541.48
2023-11-25T04:00:18.049Z,93543.98
2023-11-25T04:02:46.553Z,93551.41
2023-11-25T04:05:13.836Z,93553.80
2023-11-25T04:07:40.891Z,93557.08
2023-11-25T04:10:16.367Z,93565.02
2023-11-25T04:12:47.762Z,93568.55
2023-11-25T04:15:21.930Z,93577.41
2023-11-25T04:17:49.052Z,93582.59
2023-11-25T04:20:18.428Z,93581.33
2023-11-25T04:22:46.350Z,93587.95
2023-11-25T04:25:14.893Z,93598.88
2023-11-25T04:27:42.765Z,93606.75
2023-11-25T04:30:11.440Z,93611.33
2023-11-25T04:32:40.469Z,93614.43
2023-11-25T04:35:08.284Z,93615.88
2023-11-25T04:37:35.041Z,93624.45
2023-11-25T04:40:01.700Z,93629.73
2023-11-25T04:42:28.216Z,93633.75
2023-11-25T04:44:56.467Z,93646.77
2023-11-25T04:47:23.140Z,93652.08
2023-11-25T04:49:49.904Z,93659.42
2023-11-25T04:52:16.656Z,93667.59
2023-11-25T04:54:44.525Z,93671.30
2023-11-25T04:57:11.810Z,93673.20
2023-11-25T04:59:38.211Z,93682.30
2023-11-25T05:02:07.509Z,93697.63
2023-11-25T05:04:34.187Z,93694.45
2023-11-25T05:07:00.532Z,93706.95
2023-11-25T05:09:27.340Z,93713.09
2023-11-25T05:11:54.126Z,93712.48
2023-11-25T05:14:21.222Z,93718.20
2023-11-25T05:16:48.056Z,93732.35
2023-11-25T05:19:14.768Z,93733.77
2023-11-25T05:21:41.373Z,93744.05
2023-11-25T05:24:08.150Z,93750.63
2023-11-25T05:26:34.677Z,93768.48
2023-11-25T05:29:01.069Z,93773.71
2023-11-25T05:31:28.599Z,93783.02
2023-11-25T05:33:54.942Z,93785.57
2023-11-25T05:36:21.461Z,93792.41
2023-11-25T05:38:50.501Z,93792.58
2023-11-25T05:41:17.744Z,93800.08
2023-11-25T05:43:47.337Z,93812.79
2023-11-25T05:46:32.451Z,93818.02
2023-11-25T05:48:59.563Z,93817.38
2023-11-25T05:51:39.877Z,93824.70
2023-11-25T05:54:06.653Z,93823.10
2023-11-25T05:56:33.181Z,93832.17
2023-11-25T05:58:59.909Z,93836.23
2023-11-25T06:01:27.280Z,93853.56
2023-11-25T06:03:53.872Z,93869.87
2023-11-25T06:06:21.842Z,93869.98
2023-11-25T06:08:49.332Z,93877.64
2023-11-25T06:11:22.843Z,93886.09
2023-11-25T06:13:50.436Z,93890.20
2023-11-25T06:16:18.039Z,93897.69
2023-11-25T06:18:45.559Z,93896.64
2023-11-25T06:21:12.557Z,93900.86
2023-11-25T06:23:39.873Z,93911.55
2023-11-25T06:26:11.883Z,93919.64
2023-11-25T06:28:43.047Z,93917.82
2023-11-25T06:31:13.353Z,93917.17
2023-11-25T06:33:41.645Z,93927.38
2023-11-25T06:36:12.044Z,93933.60
2023-11-25T06:38:39.453Z,93939.66
2023-11-25T06:41:07.964Z,93948.05
2023-11-25T06:43:34.640Z,93958.42
2023-11-25T06:46:01.115Z,93959.02
2023-11-25T06:48:29.591Z,93965.54
2023-11-25T06:50:58.372Z,93965.05
2023-11-25T06:53:24.790Z,93954.24
2023-11-25T06:55:51.397Z,93961.95
2023-11-25T06:58:22.704Z,93961.45
2023-11-25T07:00:49.788Z,93960.83
2023-11-25T07:03:17.113Z,93961.32
2023-11-25T07:05:43.965Z,93966.81
2023-11-25T07:08:10.511Z,93974.20
2023-11-25T07:10:37.538Z,93972.89
2023-11-25T07:13:05.840Z,93976.30
2023-11-25T07:15:33.002Z,93972.46
2023-11-25T07:18:00.309Z,93978.27
2023-11-25T07:20:27.797Z,93982.41
2023-11-25T07:22:54.110Z,93979.66
2023-11-25T07:25:20.599Z,93979.09
2023-11-25T07:27:47.804Z,93980.91
2023-11-25T07:30:16.380Z,93981.44
2023-11-25T07:32:44.258Z,93978.98
2023-11-25T07:35:10.980Z,93981.48
2023-11-25T07:37:39.373Z,93984.58
2023-11-25T07:40:14.974Z,93987.18
2023-11-25T07:42:48.665Z,93987.02
2023-11-25T07:45:17.204Z,93987.64
2023-11-25T07:47:44.602Z,93987.67
2023-11-25T07:50:12.194Z,93988.70
2023-11-25T07:52:38.783Z,93993.11
2023-11-25T07:55:05.805Z,93994.79
2023-11-25T07:57:33.752Z,93997.24
2023-11-25T08:00:00.619Z,94006.31
2023-11-25T08:02:28.201Z,94009.41
2023-11-25T08:04:54.618Z,94013.61
2023-11-25T08:07:21.252Z,94014.38
2023-11-25T08:09:47.651Z,94014.20
2023-11-25T08:12:14.719Z,94016.30
2023-11-25T08:14:41.495Z,94018.87
2023-11-25T08:17:07.889Z,94023.08
2023-11-25T08:19:34.278Z,94025.34
2023-11-25T08:22:00.629Z,94024.30
2023-11-25T08:24:27.569Z,94026.20
2023-11-25T08:26:55.086Z,94025.63
2023-11-25T08:29:21.539Z,94029.37
2023-11-25T08:31:48.064Z,94031.67
2023-11-25T08:34:15.278Z,94029.06
2023-11-25T08:36:54.579Z,94037.68
2023-11-25T08:39:23.308Z,94037.27
2023-11-25T08:41:50.768Z,94039.97
2023-11-25T08:44:19.659Z,94040.30
2023-11-25T08:46:46.552Z,94042.46
2023-11-25T08:49:14.335Z,94047.48
2023-11-25T08:51:46.443Z,94045.76
2023-11-25T08:54:18.379Z,94044.64
2023-11-25T08:56:46.178Z,94047.77
2023-11-25T08:59:18.097Z,94043.98
2023-11-25T09:01:45.601Z,94044.57
2023-11-25T09:04:17.112Z,94051.05
2023-11-25T09:06:46.545Z,94043.21
2023-11-25T09:09:16.313Z,94041.85
2023-11-25T09:11:43.714Z,94041.81
2023-11-25T09:14:10.217Z,94040.52
2023-11-25T09:16:37.812Z,94040.40
2023-11-25T09:19:04.705Z,94039.97
2023-11-25T09:21:31.079Z,94041.35
2023-11-25T09:23:58.611Z,94041.50
2023-11-25T09:26:25.411Z,94040.51
2023-11-25T09:28:53.519Z,94043.69
2023-11-25T09:31:20.017Z,94043.08
2023-11-25T09:33:47.546Z,94044.36
2023-11-25T09:36:14.647Z,94045.14
2023-11-25T09:38:41.118Z,94042.95
2023-11-25T09:41:08.646Z,94041.01
2023-11-25T09:43:36.909Z,94039.29
2023-11-25T09:46:04.493Z,94043.47
2023-11-25T09:48:31.576Z,94045.84
2023-11-25T09:51:00.098Z,94046.67
2023-11-25T09:53:29.478Z,94040.06
2023-11-25T09:56:06.827Z,94044.25
2023-11-25T09:58:37.829Z,94038.98
2023-11-25T10:01:06.410Z,94042.02
2023-11-25T10:03:36.069Z,94040.05
2023-11-25T10:06:02.871Z,94032.40
2023-11-25T10:08:30.325Z,94029.64
2023-11-25T10:11:06.780Z,94025.81
2023-11-25T10:13:34.858Z,94018.57
2023-11-25T10:16:06.317Z,94023.77
2023-11-25T10:18:36.035Z,94022.79
2023-11-25T10:21:06.059Z,94029.45
2023-11-25T10:23:33.689Z,94024.59
2023-11-25T10:26:03.765Z,94020.11
2023-11-25T10:28:36.493Z,94021.91
2023-11-25T10:31:24.604Z,94023.33
2023-11-25T10:33:56.811Z,94017.01
2023-11-25T10:36:23.802Z,94015.14
2023-11-25T10:38:54.140Z,94014.70
2023-11-25T10:41:20.977Z,94013.08
2023-11-25T10:43:47.445Z,94011.63
2023-11-25T10:46:14.248Z,94003.90
2023-11-25T10:48:40.596Z,94002.20
2023-11-25T10:51:08.799Z,93998.34
2023-11-25T10:53:39.728Z,93993.84
2023-11-25T10:56:07.526Z,93992.96
2023-11-25T10:58:35.609Z,93991.44
2023-11-25T11:01:02.906Z,93990.79
2023-11-25T11:04:03.608Z,93988.17
2023-11-25T11:06:39.558Z,93988.17
2023-11-25T11:09:09.894Z,93982.46
2023-11-25T11:11:48.077Z,93980.29
2023-11-25T11:14:16.355Z,93974.34
2023-11-25T11:17:10.851Z,93974.67
2023-11-25T11:19:41.286Z,93973.30
2023-11-25T11:22:14.478Z,93974.82
2023-11-25T11:24:59.152Z,93978.42
2023-11-25T11:27:29.278Z,93980.79
2023-11-25T11:30:02.448Z,93980.62
2023-11-25T11:32:34.922Z,93975.79
2023-11-25T11:35:02.838Z,93981.20
2023-11-25T11:37:40.587Z,93991.16
2023-11-25T11:40:08.556Z,93992.84
2023-11-25T11:42:36.765Z,93988.36
2023-11-25T11:45:22.285Z,93989.63
2023-11-25T11:48:15.051Z,93990.83
2023-11-25T11:50:43.916Z,93982.88
2023-11-25T11:53:13.513Z,93983.57
2023-11-25T11:55:41.406Z,93985.52
2023-11-25T11:58:12.884Z,93988.71
2023-11-25T12:01:03.905Z,93980.42
2023-11-25T12:03:32.513Z,93983.48
2023-11-25T12:06:00.243Z,93984.30
2023-11-25T12:08:28.121Z,93986.65
2023-11-25T12:10:55.319Z,93984.73
2023-11-25T12:13:33.400Z,93988.42
2023-11-25T12:16:01.219Z,93992.54
2023-11-25T12:18:32.586Z,93993.42
2023-11-25T12:21:05.846Z,93998.31
2023-11-25T12:23:44.645Z,93997.30
2023-11-25T12:26:23.290Z,93996.97
2023-11-25T12:28:49.692Z,93995.81
2023-11-25T12:31:16.513Z,93998.88
2023-11-25T12:33:43.159Z,93993.95
2023-11-25T12:36:09.707Z,93993.98
2023-11-25T12:38:37.118Z,93993.37
2023-11-25T12:41:11.314Z,93997.53
2023-11-25T12:43:38.466Z,93989.55
2023-11-25T12:46:10.804Z,93995.64
2023-11-25T12:48:37.849Z,93997.88
2023-11-25T12:51:07.332Z,93997.35
2023-11-25T12:53:35.261Z,93998.30
2023-11-25T12:56:02.850Z,94000.77
2023-11-25T12:58:29.505Z,94005.91
2023-11-25T13:00:58.205Z,94002.19
2023-11-25T13:03:29.141Z,94003.45
2023-11-25T13:06:10.931Z,94002.54
2023-11-25T13:08:45.186Z,94005.98
2023-11-25T13:11:12.795Z,94006.55
2023-11-25T13:13:40.250Z,94000.88
2023-11-25T13:16:10.761Z,94002.02
2023-11-25T13:18:37.194Z,93999.77
2023-11-25T13:21:07.260Z,93996.92
2023-11-25T13:23:34.331Z,93995.95
2023-11-25T13:26:01.028Z,93993.79
2023-11-25T13:28:27.528Z,93996.25
2023-11-25T13:30:53.947Z,93994.99
2023-11-25T13:33:20.920Z,94000.63
2023-11-25T13:35:47.325Z,93995.01
2023-11-25T13:38:16.063Z,93994.45
2023-11-25T13:40:43.515Z,93996.09
2023-11-25T13:43:17.367Z,93997.11
2023-11-25T13:45:45.724Z,93991.70
2023-11-25T13:48:16.055Z,94001.07
2023-11-25T13:50:43.287Z,94004.17
2023-11-25T13:53:09.768Z,94007.67
2023-11-25T13:55:56.295Z,94005.30
2023-11-25T13:58:22.647Z,94008.70
2023-11-25T14:00:49.132Z,94010.81
2023-11-25T14:03:16.503Z,94016.15
2023-11-25T14:05:43.475Z,94015.33
2023-11-25T14:08:15.105Z,94019.09
2023-11-25T14:10:43.426Z,94017.81
2023-11-25T14:13:11.496Z,94021.45
2023-11-25T14:15:38.149Z,94023.88
2023-11-25T14:18:08.078Z,94025.20
2023-11-25T14:20:35.363Z,94027.85
2023-11-25T14:23:05.026Z,94026.02
2023-11-25T14:25:31.743Z,94029.30
2023-11-25T14:27:58.482Z,94026.38
2023-11-25T14:30:29.002Z,94028.16
2023-11-25T14:32:55.698Z,94030.55
2023-11-25T14:35:23.846Z,94033.41
2023-11-25T14:37:53.335Z,94035.13
2023-11-25T14:40:21.019Z,94029.76
2023-11-25T14:42:47.430Z,94034.80
2023-11-25T14:45:13.947Z,94037.56
2023-11-25T14:47:41.920Z,94036.05
2023-11-25T14:50:12.021Z,94034.96
2023-11-25T14:52:38.506Z,94037.98
2023-11-25T14:55:08.514Z,94038.27
2023-11-25T14:57:36.699Z,94035.11
2023-11-25T15:00:05.698Z,94035.88
2023-11-25T15:02:32.758Z,94031.83
2023-11-25T15:04:59.601Z,94029.29
2023-11-25T15:07:26.478Z,94026.02
2023-11-25T15:09:53.115Z,94019.48
2023-11-25T15:12:20.249Z,94019.73
2023-11-25T15:14:46.928Z,94016.09
2023-11-25T15:17:13.629Z,94015.72
2023-11-25T15:19:44.776Z,94017.17
2023-11-25T15:22:11.701Z,94015.56
2023-11-25T15:24:38.309Z,94018.69
2023-11-25T15:27:05.736Z,94018.59
2023-11-25T15:29:32.678Z,94016.46
2023-11-25T15:31:59.605Z,94012.94
2023-11-25T15:34:25.986Z,94005.94
2023-11-25T15:36:52.712Z,94004.15
2023-11-25T15:39:19.584Z,94005.00
2023-11-25T15:41:46.393Z,94001.52
2023-11-25T15:44:13.685Z,94000.61
2023-11-25T15:46:44.810Z,93999.25
2023-11-25T15:49:12.645Z,93994.30
2023-11-25T15:51:40.284Z,93989.02
2023-11-25T15:54:07.786Z,93985.14
2023-11-25T15:56:34.122Z,93986.77
2023-11-25T15:59:01.602Z,93983.98
2023-11-25T16:01:29.343Z,93980.35
2023-11-25T16:03:56.541Z,93980.08
2023-11-25T16:06:25.084Z,93974.25
2023-11-25T16:08:51.999Z,93971.16
2023-11-25T16:11:18.895Z,93969.52
2023-11-25T16:13:45.368Z,93971.61
2023-11-25T16:16:11.864Z,93966.01
2023-11-25T16:18:40.269Z,93967.50
2023-11-25T16:21:06.976Z,93964.98
2023-11-25T16:23:36.094Z,93961.72
2023-11-25T16:26:05.398Z,93958.36
2023-11-25T16:28:31.943Z,93954.45
2023-11-25T16:30:59.420Z,93950.80
2023-11-25T16:33:26.352Z,93953.56
2023-11-25T16:35:52.772Z,93952.73
2023-11-25T16:38:21.470Z,93951.25
2023-11-25T16:40:48.153Z,93952.09
2023-11-25T16:43:14.528Z,93949.80
2023-11-25T16:45:41.042Z,93949.97
2023-11-25T16:48:10.214Z,93953.27
2023-11-25T16:50:38.323Z,93954.58
2023-11-25T16:53:05.418Z,93955.30
2023-11-25T16:55:32.504Z,93955.48
2023-11-25T16:57:59.597Z,93957.61
2023-11-25T17:00:26.823Z,93955.59
2023-11-25T17:02:53.358Z,93954.60
2023-11-25T17:05:21.076Z,93953.93
2023-11-25T17:07:48.072Z,93952.87
2023-11-25T17:10:16.193Z,93949.61
2023-11-25T17:12:42.632Z,93952.83
2023-11-25T17:15:10.029Z,93948.68
2023-11-25T17:17:38.951Z,93946.88
2023-11-25T17:20:07.670Z,93946.68
2023-11-25T17:22:35.203Z,93944.75
2023-11-25T17:25:01.497Z,93944.06
2023-11-25T17:27:28.229Z,93949.27
2023-11-25T17:29:57.031Z,93944.32
2023-11-25T17:32:23.601Z,93946.56
2023-11-25T17:34:50.131Z,93956.33
2023-11-25T17:37:18.580Z,93956.86
2023-11-25T17:39:45.540Z,93949.62
2023-11-25T17:42:12.150Z,93945.57
2023-11-25T17:44:38.911Z,93955.80
2023-11-25T17:47:07.181Z,93967.31
2023-11-25T17:49:33.976Z,93968.34
2023-11-25T17:52:00.530Z,93969.73
2023-11-25T17:54:27.064Z,93972.25
2023-11-25T17:56:58.618Z,93972.36
2023-11-25T17:59:25.019Z,93966.67
2023-11-25T18:01:51.835Z,93970.73
2023-11-25T18:04:18.419Z,93972.25
2023-11-25T18:06:45.975Z,93977.77
2023-11-25T18:09:17.088Z,93982.98
2023-11-25T18:11:43.871Z,93988.52
2023-11-25T18:14:13.537Z,93986.66
2023-11-25T18:16:41.537Z,93991.14
2023-11-25T18:19:12.031Z,93987.80
2023-11-25T18:21:38.784Z,93994.21
2023-11-25T18:24:05.968Z,93993.65
2023-11-25T18:26:32.577Z,93988.96
2023-11-25T18:28:59.192Z,93990.67
2023-11-25T18:31:25.545Z,93988.61
2023-11-25T18:33:52.047Z,93985.43
2023-11-25T18:36:18.454Z,93986.30
2023-11-25T18:38:44.848Z,93984.62
2023-11-25T18:41:13.135Z,93981.25
2023-11-25T18:43:39.984Z,93985.40
2023-11-25T18:46:06.698Z,93984.96
2023-11-25T18:48:33.703Z,93986.30
2023-11-25T18:51:09.444Z,93987.36
2023-11-25T18:53:36.379Z,93987.98
2023-11-25T18:56:03.257Z,93987.57
2023-11-25T18:58:32.168Z,93991.35
2023-11-25T19:00:59.662Z,93988.42
2023-11-25T19:03:26.555Z,93992.46
2023-11-25T19:05:53.014Z,93991.88
2023-11-25T19:08:19.670Z,93991.93
2023-11-25T19:10:47.476Z,93997.52
2023-11-25T19:13:14.441Z,93999.70
2023-11-25T19:15:40.978Z,93998.98
2023-11-25T19:18:10.212Z,93998.79
2023-11-25T19:20:38.758Z,93996.10
2023-11-25T19:23:05.805Z,93992.66
2023-11-25T19:25:35.220Z,93994.36
2023-11-25T19:28:02.227Z,93989.57
2023-11-25T19:30:29.587Z,93988.94
2023-11-25T19:32:56.061Z,93991.23
2023-11-25T19:35:22.775Z,93989.13
2023-11-25T19:37:49.089Z,93991.73
2023-11-25T19:40:15.829Z,93994.60
2023-11-25T19:42:43.826Z,93995.02
2023-11-25T19:45:10.403Z,93994.29
2023-11-25T19:47:38.579Z,93994.68
2023-11-25T19:50:09.993Z,94001.60
2023-11-25T19:52:39.296Z,94005.60
2023-11-25T19:55:07.316Z,94005.21
2023-11-25T19:57:34.529Z,94006.50
2023-11-25T20:00:01.077Z,94007.33
2023-11-25T20:02:27.850Z,94010.03
2023-11-25T20:04:54.969Z,94012.45
2023-11-25T20:07:22.151Z,94009.08
2023-11-25T20:09:48.599Z,94014.17
2023-11-25T20:12:15.250Z,94012.48
2023-11-25T20:14:41.796Z,94011.58
2023-11-25T20:17:08.390Z,94018.80
2023-11-25T20:19:34.788Z,94023.80
2023-11-25T20:22:06.371Z,94017.18
2023-11-25T20:24:33.496Z,94023.20
2023-11-25T20:27:00.211Z,94026.06
2023-11-25T20:29:26.657Z,94019.06
2023-11-25T20:31:55.820Z,94022.59
2023-11-25T20:34:24.442Z,94021.38
2023-11-25T20:36:52.789Z,94029.14
2023-11-25T20:39:19.773Z,94026.81
2023-11-25T20:41:46.465Z,94032.44
2023-11-25T20:44:13.373Z,94034.39
2023-11-25T20:46:39.888Z,94035.71
2023-11-25T20:49:07.897Z,94034.80
2023-11-25T20:51:35.442Z,94039.55
2023-11-25T20:54:02.350Z,94042.66
2023-11-25T20:56:28.679Z,94043.17
2023-11-25T20:58:57.046Z,94047.81
2023-11-25T21:01:23.486Z,94050.05
2023-11-25T21:03:50.106Z,94053.63
2023-11-25T21:06:17.066Z,94058.11
2023-11-25T21:08:44.372Z,94062.63
2023-11-25T21:11:11.048Z,94066.86
2023-11-25T21:13:37.409Z,94072.98
2023-11-25T21:16:05.132Z,94075.52
2023-11-25T21:18:36.688Z,94082.19
2023-11-25T21:21:04.365Z,94082.05
2023-11-25T21:23:30.883Z,94079.11
2023-11-25T21:25:57.321Z,94079.89
2023-11-25T21:28:24.685Z,94084.06
2023-11-25T21:30:51.344Z,94084.29
2023-11-25T21:33:18.059Z,94085.77
2023-11-25T21:35:47.033Z,94087.35
2023-11-25T21:38:13.373Z,94090.88
2023-11-25T21:40:41.052Z,94088.59
2023-11-25T21:43:07.469Z,94092.14
2023-11-25T21:45:34.544Z,94088.75
2023-11-25T21:48:00.942Z,94093.10
2023-11-25T21:50:28.004Z,94094.33
2023-11-25T21:52:54.710Z,94097.75
2023-11-25T21:55:21.711Z,94099.14
2023-11-25T21:57:48.344Z,94098.95
2023-11-25T22:00:16.346Z,94099.17
2023-11-25T22:02:43.587Z,94097.46
2023-11-25T22:05:11.423Z,94102.58
2023-11-25T22:07:38.064Z,94105.74
2023-11-25T22:10:07.417Z,94111.20
2023-11-25T22:12:34.460Z,94112.08
2023-11-25T22:15:00.830Z,94108.66
2023-11-25T22:17:27.886Z,94107.11
2023-11-25T22:19:54.447Z,94111.27
2023-11-25T22:22:20.843Z,94118.34
2023-11-25T22:24:55.402Z,94121.70
2023-11-25T22:27:23.346Z,94123.48
2023-11-25T22:29:50.819Z,94130.50
2023-11-25T22:32:18.205Z,94130.67
2023-11-25T22:34:46.166Z,94132.38
2023-11-25T22:37:14.742Z,94129.67
2023-11-25T22:39:41.677Z,94133.12
2023-11-25T22:42:09.410Z,94137.25
2023-11-25T22:44:35.761Z,94134.47
2023-11-25T22:47:02.808Z,94132.59
2023-11-25T22:49:29.188Z,94134.83
2023-11-25T22:51:55.529Z,94129.38
2023-11-25T22:54:21.914Z,94132.91
2023-11-25T22:56:48.885Z,94131.26
2023-11-25T22:59:15.620Z,94136.77
2023-11-25T23:01:42.070Z,94131.70
2023-11-25T23:04:09.504Z,94129.48
2023-11-25T23:06:38.135Z,94130.05
2023-11-25T23:09:05.317Z,94132.45
2023-11-25T23:11:32.285Z,94133.27
2023-11-25T23:13:59.510Z,94134.52
2023-11-25T23:16:26.422Z,94128.02
2023-11-25T23:18:52.923Z,94130.93
2023-11-25T23:21:19.619Z,94134.48
2023-11-25T23:23:48.699Z,94139.25
2023-11-25T23:26:16.205Z,94141.40
2023-11-25T23:28:43.763Z,94142.51
2023-11-25T23:31:10.902Z,94150.27
2023-11-25T23:33:37.920Z,94147.13
2023-11-25T23:36:05.262Z,94148.20
2023-11-25T23:38:32.181Z,94148.74
2023-11-25T23:40:58.673Z,94142.05
2023-11-25T23:43:24.994Z,94143.52
2023-11-25T23:45:51.510Z,94141.09
2023-11-25T23:48:18.618Z,94138.56
2023-11-25T23:50:44.921Z,94135.94
2023-11-25T23:53:12.627Z,94136.38
2023-11-25T23:55:40.108Z,94141.54
2023-11-25T23:58:06.781Z,94143.63
